Time;durP1;ratioP1;P1;durP2;ratioP2;P2;SDS_P1;SDS_P2;PMS_P1;PMS_P2;Temp;Humidity;BMP_temperature;BMP_pressure;BME280_temperature;BME280_humidity;BME280_pressure;Samples;Min_cycle;Max_cycle;Signal;HPM_P1;HPM_P2
2023/05/15 00:01:29;;;;;;;25.13;19.38;;;;;;;13.77;98.43;100613.63;4915452;29;20056;-78
2023/05/15 00:03:56;;;;;;;29.60;20.65;;;;;;;13.75;98.91;100618.25;4915947;28;20055;-77
2023/05/15 00:06:24;;;;;;;25.17;20.20;;;;;;;13.71;99.66;100609.06;4914762;29;20048;-77
2023/05/15 00:08:50;;;;;;;25.05;19.60;;;;;;;13.73;100.00;100622.03;4909379;29;20052;-76
2023/05/15 00:11:17;;;;;;;25.67;20.02;;;;;;;13.73;100.00;100620.22;4915063;29;20168;-76
2023/05/15 00:13:44;;;;;;;26.55;21.25;;;;;;;13.71;100.00;100626.66;4914377;29;20558;-76
2023/05/15 00:16:10;;;;;;;29.58;21.95;;;;;;;13.62;100.00;100625.94;4914528;28;20444;-77
2023/05/15 00:18:37;;;;;;;28.25;22.23;;;;;;;13.55;100.00;100630.25;4914843;29;20058;-77
2023/05/15 00:21:04;;;;;;;30.50;22.15;;;;;;;13.50;100.00;100635.22;4914528;29;20529;-78
2023/05/15 00:23:32;;;;;;;33.42;24.08;;;;;;;13.44;100.00;100636.72;4914423;29;20123;-77
2023/05/15 00:25:59;;;;;;;32.70;23.98;;;;;;;13.40;100.00;100630.16;4914419;29;20567;-76
2023/05/15 00:28:25;;;;;;;27.35;23.15;;;;;;;13.42;100.00;100630.81;4914251;28;20078;-76
2023/05/15 00:30:52;;;;;;;31.05;24.17;;;;;;;13.44;100.00;100638.53;4913975;29;20044;-74
2023/05/15 00:33:19;;;;;;;31.45;24.50;;;;;;;13.40;100.00;100627.53;4914120;29;20064;-76
2023/05/15 00:35:46;;;;;;;34.97;23.83;;;;;;;13.39;100.00;100633.78;4920158;28;20059;-75
2023/05/15 00:38:12;;;;;;;32.55;24.23;;;;;;;13.35;100.00;100623.81;4914209;29;20080;-76
2023/05/15 00:40:41;;;;;;;31.67;24.33;;;;;;;13.32;100.00;100632.03;4913156;29;20052;-76
2023/05/15 00:43:09;;;;;;;36.28;25.02;;;;;;;13.33;100.00;100629.22;4914008;29;20048;-77
2023/05/15 00:45:37;;;;;;;33.47;25.27;;;;;;;13.31;100.00;100635.66;4913847;29;20054;-76
2023/05/15 00:48:05;;;;;;;30.05;24.20;;;;;;;13.23;100.00;100626.03;4914207;29;20044;-76
2023/05/15 00:50:33;;;;;;;32.55;25.15;;;;;;;13.32;100.00;100629.41;4917614;28;20512;-76
2023/05/15 00:53:00;;;;;;;31.65;25.50;;;;;;;13.23;100.00;100626.03;4913671;29;20055;-75
2023/05/15 00:55:28;;;;;;;37.72;26.02;;;;;;;13.20;100.00;100629.00;4913763;28;20483;-75
2023/05/15 00:57:57;;;;;;;31.75;24.23;;;;;;;13.25;100.00;100622.22;4914361;29;20075;-76
2023/05/15 01:00:25;;;;;;;35.90;25.50;;;;;;;13.35;100.00;100624.63;4906340;29;20088;-75
2023/05/15 01:02:52;;;;;;;33.25;24.83;;;;;;;13.40;100.00;100630.16;4914045;29;20135;-75
2023/05/15 01:05:19;;;;;;;36.83;25.85;;;;;;;13.47;100.00;100630.28;4913774;28;20266;-77
2023/05/15 01:07:53;;;;;;;36.60;26.98;;;;;;;13.46;100.00;100624.22;4913709;28;20404;-76
2023/05/15 01:10:21;;;;;;;39.33;28.40;;;;;;;13.53;100.00;100621.72;4913460;29;20095;-76
2023/05/15 01:12:53;;;;;;;39.35;27.70;;;;;;;13.53;100.00;100621.72;4913438;29;20045;-75
2023/05/15 01:15:21;;;;;;;37.72;27.75;;;;;;;13.57;100.00;100630.88;4913478;29;20059;-76
2023/05/15 01:17:50;;;;;;;33.83;27.15;;;;;;;13.59;100.00;100624.47;4913508;29;20135;-74
2023/05/15 01:20:18;;;;;;;37.05;26.65;;;;;;;13.68;100.00;100624.41;4913391;29;20066;-73
2023/05/15 01:22:52;;;;;;;32.00;26.42;;;;;;;13.76;100.00;100619.06;4913674;29;20083;-75
2023/05/15 01:26:03;;;;;;;36.10;26.80;;;;;;;13.79;100.00;100616.06;4913698;29;20135;-75
2023/05/15 01:28:36;;;;;;;36.50;25.65;;;;;;;13.80;100.00;100629.06;4913839;28;20056;-77
2023/05/15 01:31:10;;;;;;;40.75;28.08;;;;;;;13.78;100.00;100623.16;4913120;29;20056;-75
2023/05/15 01:33:43;;;;;;;37.20;25.67;;;;;;;13.81;100.00;100628.06;4913657;29;20083;-74
2023/05/15 01:36:14;;;;;;;41.38;27.95;;;;;;;13.80;100.00;100620.34;4913519;28;20076;-75
2023/05/15 01:38:46;;;;;;;40.35;27.67;;;;;;;13.76;100.00;100614.63;4913525;29;20070;-76
2023/05/15 01:41:21;;;;;;;42.17;29.97;;;;;;;13.77;100.00;100620.69;4913511;29;20182;-78
2023/05/15 01:43:56;;;;;;;41.65;30.92;;;;;;;13.78;100.00;100614.44;4921692;29;20079;-79
2023/05/15 01:46:26;;;;;;;40.90;29.48;;;;;;;13.81;100.00;100620.16;4922967;29;20108;-78
2023/05/15 01:48:55;;;;;;;47.05;30.85;;;;;;;13.86;100.00;100622.28;4922393;29;20052;-77
2023/05/15 01:51:23;;;;;;;47.28;32.80;;;;;;;13.86;100.00;100615.19;4919858;29;20063;-78
2023/05/15 01:53:51;;;;;;;47.85;32.55;;;;;;;13.87;100.00;100621.28;4919886;29;20084;-79
2023/05/15 01:56:19;;;;;;;43.30;31.50;;;;;;;13.82;100.00;100624.44;4919038;29;20123;-77
2023/05/15 01:58:46;;;;;;;49.22;32.58;;;;;;;13.80;100.00;100620.34;4918625;29;20048;-79
2023/05/15 02:01:17;;;;;;;53.03;32.20;;;;;;;13.75;100.00;100622.69;4918488;29;20050;-79
2023/05/15 02:03:45;;;;;;;46.05;31.02;;;;;;;13.80;100.00;100615.91;4920983;28;20055;-77
2023/05/15 02:06:13;;;;;;;44.70;31.02;;;;;;;13.81;100.00;100627.25;4920186;29;20116;-78
2023/05/15 02:08:41;;;;;;;43.80;31.50;;;;;;;13.76;100.00;100632.22;4920281;29;20071;-79
2023/05/15 02:11:09;;;;;;;47.72;31.30;;;;;;;13.70;100.00;100622.41;4919789;29;20056;-76
2023/05/15 02:13:36;;;;;;;46.90;31.13;;;;;;;13.76;100.00;100632.22;4923437;29;20052;-78
2023/05/15 02:16:02;;;;;;;42.40;30.98;;;;;;;13.71;100.00;100621.41;4926878;29;20052;-77
2023/05/15 02:18:30;;;;;;;48.33;31.92;;;;;;;13.71;100.00;100629.28;4926220;28;20135;-77
2023/05/15 02:20:59;;;;;;;49.38;31.35;;;;;;;13.75;100.00;100628.75;4925507;29;20091;-76
2023/05/15 02:23:26;;;;;;;43.05;31.58;;;;;;;13.69;100.00;100639.19;4921174;29;20079;-77
2023/05/15 02:26:07;;;;;;;41.40;31.77;;;;;;;13.74;100.00;100637.63;4931177;28;20080;-77
2023/05/15 02:28:47;;;;;;;43.50;30.73;;;;;;;13.61;100.00;100635.63;4922362;29;20083;-78
2023/05/15 02:31:21;;;;;;;42.75;31.73;;;;;;;13.66;100.00;100634.28;4930643;28;20048;-77
2023/05/15 02:33:55;;;;;;;43.45;30.80;;;;;;;13.66;100.00;100644.81;4935924;28;20048;-78
2023/05/15 02:36:29;;;;;;;44.30;33.00;;;;;;;13.69;100.00;100640.00;4936051;29;20071;-77
2023/05/15 02:38:58;;;;;;;44.03;33.08;;;;;;;13.65;100.00;100632.66;4935615;28;20059;-77
2023/05/15 02:41:26;;;;;;;45.08;33.97;;;;;;;13.65;100.00;100643.16;4935264;28;20051;-77
2023/05/15 02:43:55;;;;;;;46.17;33.72;;;;;;;13.73;100.00;100637.81;4935406;28;20080;-76
2023/05/15 02:46:23;;;;;;;46.05;34.42;;;;;;;13.64;100.00;100636.28;4932445;29;20107;-77
2023/05/15 02:48:52;;;;;;;51.90;35.63;;;;;;;13.63;100.00;100635.44;4923356;29;20052;-78
2023/05/15 02:51:19;;;;;;;49.45;35.03;;;;;;;13.47;100.00;100641.63;4921682;29;20124;-78
2023/05/15 02:53:46;;;;;;;48.58;36.58;;;;;;;13.55;100.00;100644.22;4922789;29;20080;-77
2023/05/15 02:56:12;;;;;;;51.47;37.33;;;;;;;13.49;100.00;100644.91;4919607;29;20487;-77
2023/05/15 02:58:39;;;;;;;53.42;36.78;;;;;;;13.52;100.00;100641.94;4919015;29;20116;-78
2023/05/15 03:01:06;;;;;;;51.92;37.20;;;;;;;13.53;100.00;100654.09;4915518;29;20052;-77
2023/05/15 03:03:33;;;;;;;52.42;36.90;;;;;;;13.53;100.00;100648.81;4918357;29;20079;-77
2023/05/15 03:06:01;;;;;;;54.75;37.75;;;;;;;13.48;100.00;100643.25;4919941;29;20080;-77
2023/05/15 03:08:28;;;;;;;61.63;40.83;;;;;;;13.48;100.00;100643.25;4918651;29;20055;-80
2023/05/15 03:10:54;;;;;;;54.63;38.97;;;;;;;13.46;100.00;100645.25;4920332;29;20112;-79
2023/05/15 03:13:21;;;;;;;58.28;39.88;;;;;;;13.45;100.00;100637.53;4920510;29;20052;-77
2023/05/15 03:15:48;;;;;;;55.17;40.03;;;;;;;13.42;100.00;100635.25;4919905;29;20100;-77
2023/05/15 03:18:14;;;;;;;57.38;40.50;;;;;;;13.41;100.00;100638.88;4920426;29;20113;-77
2023/05/15 03:20:42;;;;;;;59.10;40.50;;;;;;;13.37;100.00;100637.59;4922147;28;20088;-78
2023/05/15 03:23:10;;;;;;;58.33;39.40;;;;;;;13.42;100.00;100638.69;4921387;28;20107;-79
2023/05/15 03:25:37;;;;;;;59.38;39.63;;;;;;;13.32;100.00;100640.72;4921463;29;20048;-78
2023/05/15 03:28:03;;;;;;;60.50;40.50;;;;;;;13.39;100.00;100641.69;4920077;29;20067;-77
2023/05/15 03:30:30;;;;;;;62.42;40.70;;;;;;;13.36;100.00;100644.66;4917383;29;20112;-78
2023/05/15 03:32:57;;;;;;;55.58;39.53;;;;;;;13.38;100.00;100639.22;4920613;29;20056;-76
2023/05/15 03:35:24;;;;;;;57.53;41.17;;;;;;;13.43;100.00;100648.22;4920588;29;20059;-81
2023/05/15 03:37:51;;;;;;;57.65;39.25;;;;;;;13.51;100.00;100650.81;4918669;28;20048;-80
2023/05/15 03:40:19;;;;;;;60.42;39.83;;;;;;;13.36;100.00;100643.84;4918474;29;20475;-78
2023/05/15 03:42:46;;;;;;;59.78;39.72;;;;;;;13.32;100.00;100637.28;4917265;29;20088;-79
2023/05/15 03:45:12;;;;;;;60.75;40.38;;;;;;;13.28;100.00;100636.81;4916890;29;20550;-78
2023/05/15 03:47:39;;;;;;;60.78;39.42;;;;;;;13.28;100.00;100634.19;4917139;29;20048;-78
2023/05/15 03:50:07;;;;;;;59.75;40.28;;;;;;;13.31;100.00;100631.22;4916237;29;20079;-80
2023/05/15 03:52:33;;;;;;;53.70;39.70;;;;;;;13.34;100.00;100637.94;4917241;29;20131;-80
2023/05/15 03:55:01;;;;;;;63.33;40.40;;;;;;;13.28;100.00;100636.81;4916822;29;20056;-77
2023/05/15 03:57:29;;;;;;;61.90;40.97;;;;;;;13.22;100.00;100632.28;4918260;29;20123;-78
2023/05/15 03:59:56;;;;;;;62.47;41.05;;;;;;;13.27;100.00;100640.44;4910195;29;20116;-79
2023/05/15 04:02:22;;;;;;;60.90;40.78;;;;;;;13.22;100.00;100643.59;4917493;29;20048;-79
2023/05/15 04:04:50;;;;;;;57.50;39.95;;;;;;;13.17;100.00;100637.22;4917623;29;20054;-79
2023/05/15 04:07:17;;;;;;;58.42;41.08;;;;;;;13.26;100.00;100642.25;4916265;29;20124;-80
2023/05/15 04:09:44;;;;;;;63.95;42.22;;;;;;;13.25;100.00;100640.59;4916582;29;20111;-80
2023/05/15 04:12:10;;;;;;;64.80;42.47;;;;;;;13.22;100.00;100640.97;4916272;29;20087;-80
2023/05/15 04:14:38;;;;;;;63.33;41.92;;;;;;;13.24;100.00;100641.59;4917011;29;20052;-79
2023/05/15 04:17:05;;;;;;;64.78;41.78;;;;;;;13.21;100.00;100639.34;4919789;29;20083;-80
2023/05/15 04:19:31;;;;;;;66.78;43.22;;;;;;;13.20;100.00;100642.97;4919022;29;20483;-79
2023/05/15 04:21:58;;;;;;;64.63;43.35;;;;;;;13.15;100.00;100640.00;4921077;29;20189;-79
2023/05/15 04:24:25;;;;;;;67.00;42.22;;;;;;;13.19;100.00;100635.25;4920677;29;20076;-78
2023/05/15 04:26:51;;;;;;;71.95;43.50;;;;;;;13.18;100.00;100636.25;4921323;29;20066;-79
2023/05/15 04:29:18;;;;;;;63.95;40.63;;;;;;;13.15;100.00;100644.44;4922254;29;20080;-76
2023/05/15 04:31:46;;;;;;;69.05;43.72;;;;;;;13.09;100.00;100653.00;4917849;29;20491;-78
2023/05/15 04:34:12;;;;;;;65.93;42.70;;;;;;;12.98;100.00;100648.13;4919918;29;20147;-77
2023/05/15 04:36:40;;;;;;;68.20;44.15;;;;;;;12.99;100.00;100647.13;4919117;29;20488;-79
2023/05/15 04:39:07;;;;;;;67.75;43.85;;;;;;;13.03;100.00;100640.53;4917782;29;20048;-78
2023/05/15 04:41:34;;;;;;;69.32;46.15;;;;;;;13.05;100.00;100654.31;4917832;29;20059;-78
2023/05/15 04:44:00;;;;;;;72.15;45.50;;;;;;;13.05;100.00;100641.19;4917671;29;20048;-79
2023/05/15 04:46:28;;;;;;;78.85;48.08;;;;;;;13.04;100.00;100650.06;4917891;29;20131;-79
2023/05/15 04:48:56;;;;;;;78.55;47.83;;;;;;;12.97;100.00;100644.66;4918116;29;20048;-77
2023/05/15 04:51:22;;;;;;;77.57;48.45;;;;;;;13.02;100.00;100657.28;4910346;29;20063;-79
2023/05/15 04:53:49;;;;;;;75.45;47.65;;;;;;;12.98;100.00;100641.06;4918796;29;20074;-78
2023/05/15 04:56:15;;;;;;;79.20;49.63;;;;;;;13.04;100.00;100650.06;4918998;29;20139;-78
2023/05/15 04:58:42;;;;;;;78.00;48.60;;;;;;;13.18;100.00;100644.13;4918298;29;20132;-76
2023/05/15 05:01:09;;;;;;;77.93;51.60;;;;;;;13.27;100.00;100656.19;4918646;28;20079;-80
2023/05/15 05:03:35;;;;;;;74.45;49.33;;;;;;;13.26;100.00;100654.56;4918736;29;20563;-79
2023/05/15 05:06:03;;;;;;;77.00;49.42;;;;;;;13.31;100.00;100652.22;4919561;28;20090;-78
2023/05/15 05:08:30;;;;;;;78.25;47.65;;;;;;;13.39;100.00;100659.25;4920180;29;20133;-79
2023/05/15 05:10:57;;;;;;;68.25;43.55;;;;;;;13.28;100.00;100661.28;4919603;29;20058;-79
2023/05/15 05:13:23;;;;;;;60.80;43.13;;;;;;;13.39;100.00;100664.50;4951042;28;20059;-79
2023/05/15 05:15:50;;;;;;;62.08;42.53;;;;;;;13.44;100.00;100657.75;4918609;29;20147;-78
2023/05/15 05:18:16;;;;;;;60.90;41.88;;;;;;;13.24;100.00;100661.78;4919224;29;20131;-78
2023/05/15 05:20:43;;;;;;;58.53;39.00;;;;;;;13.23;100.00;100660.97;4918551;29;20059;-78
2023/05/15 05:23:13;;;;;;;64.15;40.92;;;;;;;13.22;100.00;100663.81;4918288;29;20052;-81
2023/05/15 05:25:40;;;;;;;57.15;38.05;;;;;;;13.25;100.00;100661.63;4919410;29;20052;-79
2023/05/15 05:28:06;;;;;;;55.10;38.40;;;;;;;13.29;100.00;100670.81;4918414;29;20206;-80
2023/05/15 05:30:33;;;;;;;50.78;36.55;;;;;;;13.28;100.00;100660.47;4918229;29;20130;-79
2023/05/15 05:33:00;;;;;;;45.78;34.30;;;;;;;13.06;100.00;100658.59;4919586;29;20056;-78
2023/05/15 05:35:27;;;;;;;50.20;35.03;;;;;;;13.20;99.26;100668.41;4919855;29;20087;-80
2023/05/15 05:37:54;;;;;;;49.80;33.53;;;;;;;13.27;98.42;100656.19;4919280;29;20443;-80
2023/05/15 05:40:22;;;;;;;48.30;33.83;;;;;;;13.34;97.33;100649.25;4917970;29;20492;-79
2023/05/15 05:42:49;;;;;;;50.35;33.92;;;;;;;13.36;97.05;100655.16;4919891;29;20135;-80
2023/05/15 05:45:16;;;;;;;45.95;35.20;;;;;;;13.41;96.91;100652.00;4919542;29;20088;-79
2023/05/15 05:47:42;;;;;;;47.50;35.45;;;;;;;13.32;96.65;100659.13;4919823;29;20138;-78
2023/05/15 05:50:09;;;;;;;44.97;33.88;;;;;;;13.46;96.37;100650.50;4918526;29;20155;-79
2023/05/15 05:52:36;;;;;;;51.38;35.78;;;;;;;13.28;96.31;100648.13;4918684;29;20112;-79
2023/05/15 05:55:03;;;;;;;47.65;37.00;;;;;;;13.18;97.07;100654.63;4919260;29;20091;-79
2023/05/15 05:57:31;;;;;;;46.78;35.28;;;;;;;13.19;97.01;100664.16;4919666;29;20056;-78
2023/05/15 05:59:57;;;;;;;53.28;35.30;;;;;;;13.23;96.46;100660.19;4921239;28;20128;-77
2023/05/15 06:02:24;;;;;;;45.33;35.03;;;;;;;13.26;96.68;100665.06;4919577;29;20079;-80
2023/05/15 06:04:51;;;;;;;43.92;33.08;;;;;;;13.16;96.37;100665.31;4919008;28;20150;-80
2023/05/15 06:07:18;;;;;;;47.55;35.67;;;;;;;13.07;96.58;100666.31;4919014;29;20127;-80
2023/05/15 06:09:47;;;;;;;54.88;36.63;;;;;;;13.05;96.66;100670.09;4919603;28;20107;-78
2023/05/15 06:12:13;;;;;;;49.95;36.15;;;;;;;13.05;96.28;100673.53;4916953;29;20048;-80
2023/05/15 06:14:41;;;;;;;57.75;37.80;;;;;;;12.98;96.48;100677.00;4918083;29;20139;-79
2023/05/15 06:17:08;;;;;;;55.85;37.80;;;;;;;13.07;96.17;100678.63;4917328;29;20139;-79
2023/05/15 06:19:35;;;;;;;56.03;39.10;;;;;;;13.19;96.17;100677.28;4918363;29;20152;-79
2023/05/15 06:22:01;;;;;;;54.95;39.83;;;;;;;13.28;95.75;100673.59;4918611;29;20140;-78
2023/05/15 06:24:28;;;;;;;58.42;39.65;;;;;;;13.25;95.52;100668.69;4918780;29;20139;-79
2023/05/15 06:26:55;;;;;;;51.25;38.42;;;;;;;13.03;95.88;100667.63;4921169;29;20147;-79
2023/05/15 06:29:21;;;;;;;56.92;40.03;;;;;;;13.05;95.58;100665.66;4920852;29;20491;-81
2023/05/15 06:31:49;;;;;;;58.58;41.40;;;;;;;13.04;95.96;100682.41;4918952;29;20106;-78
2023/05/15 06:34:16;;;;;;;56.45;39.65;;;;;;;13.20;95.51;100681.56;4918801;29;20071;-79
2023/05/15 06:36:44;;;;;;;57.30;40.65;;;;;;;13.22;95.58;100674.31;4920002;29;20106;-80
2023/05/15 06:39:10;;;;;;;63.08;45.33;;;;;;;13.20;95.22;100673.66;4917120;28;20100;-80
2023/05/15 06:41:37;;;;;;;60.90;44.72;;;;;;;13.20;94.90;100673.66;4918480;29;20139;-78
2023/05/15 06:44:04;;;;;;;62.03;44.05;;;;;;;13.26;94.90;100678.22;4918488;29;20116;-81
2023/05/15 06:46:30;;;;;;;61.47;43.20;;;;;;;13.22;94.74;100675.13;4919012;29;20504;-81
2023/05/15 06:48:58;;;;;;;72.15;45.67;;;;;;;12.98;95.06;100677.81;4918352;29;20080;-79
2023/05/15 06:51:25;;;;;;;65.05;44.85;;;;;;;12.96;95.24;100680.63;4917563;29;20552;-79
2023/05/15 06:53:52;;;;;;;63.22;43.35;;;;;;;13.04;95.52;100689.47;4918044;29;20052;-79
2023/05/15 06:56:18;;;;;;;56.97;41.25;;;;;;;13.02;95.80;100688.81;4918471;29;20155;-79
2023/05/15 06:58:45;;;;;;;58.85;41.10;;;;;;;13.04;95.49;100697.34;4918599;29;20091;-81
2023/05/15 07:01:12;;;;;;;59.40;39.97;;;;;;;13.22;94.95;100696.16;4917472;29;20138;-79
2023/05/15 07:03:38;;;;;;;64.63;43.90;;;;;;;13.33;94.76;100691.47;4917486;29;20083;-79
2023/05/15 07:06:07;;;;;;;62.67;41.35;;;;;;;13.22;94.08;100690.09;4918095;29;20048;-79
2023/05/15 07:08:33;;;;;;;67.80;45.58;;;;;;;13.28;93.74;100694.63;4917842;29;20054;-79
2023/05/15 07:11:00;;;;;;;58.95;43.08;;;;;;;13.20;93.35;100692.88;4917495;29;20130;-77
2023/05/15 07:13:26;;;;;;;59.95;42.28;;;;;;;12.96;93.57;100691.13;4920440;29;20082;-80
2023/05/15 07:15:53;;;;;;;55.30;40.95;;;;;;;13.18;93.68;100701.91;4920253;28;20071;-80
2023/05/15 07:18:20;;;;;;;55.90;40.40;;;;;;;13.29;93.42;100697.09;4920236;29;20052;-80
2023/05/15 07:20:46;;;;;;;59.65;44.65;;;;;;;13.26;93.29;100696.59;4923176;29;20083;-80
2023/05/15 07:23:14;;;;;;;57.80;40.67;;;;;;;13.19;92.75;100678.09;4919637;29;20087;-81
2023/05/15 07:25:41;;;;;;;58.17;41.33;;;;;;;13.35;92.82;100690.31;4919156;29;20052;-80
2023/05/15 07:28:08;;;;;;;60.47;43.67;;;;;;;13.37;92.35;100679.63;4913125;29;20073;-81
2023/05/15 07:30:34;;;;;;;61.65;42.67;;;;;;;13.50;92.22;100679.91;4917936;29;20076;-79
2023/05/15 07:33:01;;;;;;;60.03;40.67;;;;;;;13.66;91.50;100677.16;4917830;29;20233;-78
2023/05/15 07:35:27;;;;;;;57.15;41.10;;;;;;;13.56;91.41;100671.31;4918436;28;20123;-80
2023/05/15 07:37:54;;;;;;;55.03;41.47;;;;;;;13.36;91.79;100670.94;4918434;29;20508;-80
2023/05/15 07:40:22;;;;;;;55.92;41.15;;;;;;;13.54;91.57;100676.75;4951251;28;20091;-77
2023/05/15 07:42:49;;;;;;;57.55;41.20;;;;;;;13.60;91.34;100673.44;4917676;29;20143;-80
2023/05/15 07:45:15;;;;;;;55.45;40.33;;;;;;;13.79;90.95;100685.28;4909910;29;20084;-80
2023/05/15 07:47:44;;;;;;;63.25;42.33;;;;;;;13.80;90.77;100678.19;4917858;29;20052;-81
2023/05/15 07:50:11;;;;;;;62.88;43.10;;;;;;;13.55;90.67;100681.00;4919689;28;20052;-78
2023/05/15 07:52:37;;;;;;;58.55;41.58;;;;;;;13.65;90.80;100691.31;4912648;29;20099;-76
2023/05/15 07:55:05;;;;;;;63.67;43.17;;;;;;;13.50;90.77;100683.34;4921537;29;20052;-77
2023/05/15 07:57:33;;;;;;;60.55;41.03;;;;;;;13.79;90.42;100687.91;4929025;29;20056;-79
2023/05/15 08:00:05;;;;;;;55.03;39.40;;;;;;;13.73;90.30;100682.53;4925494;28;20048;-79
2023/05/15 08:02:32;;;;;;;61.15;41.78;;;;;;;13.62;90.41;100683.78;4925164;29;20135;-79
2023/05/15 08:04:58;;;;;;;59.53;40.88;;;;;;;13.67;90.32;100691.97;4918478;29;20052;-78
2023/05/15 08:07:25;;;;;;;63.03;40.85;;;;;;;13.70;90.55;100686.34;4916681;29;20087;-78
2023/05/15 08:09:52;;;;;;;55.22;39.53;;;;;;;14.37;89.30;100675.09;4923413;28;20460;-80
2023/05/15 08:12:20;;;;;;;51.30;38.50;;;;;;;14.69;86.86;100658.97;4915185;29;20072;-78
2023/05/15 08:14:49;;;;;;;49.50;36.67;;;;;;;14.61;85.72;100666.97;4918538;29;20062;-77
2023/05/15 08:17:16;;;;;;;46.08;35.95;;;;;;;15.21;83.93;100664.09;4917510;29;20053;-78
2023/05/15 08:19:43;;;;;;;47.15;35.22;;;;;;;16.10;81.47;100661.94;4917792;29;20131;-81
2023/05/15 08:22:10;;;;;;;48.65;35.13;;;;;;;17.20;78.13;100661.16;4917160;29;20423;-79
2023/05/15 08:24:37;;;;;;;44.53;33.38;;;;;;;17.42;75.12;100649.44;4918407;28;20056;-78
2023/05/15 08:27:04;;;;;;;41.28;33.85;;;;;;;17.34;73.78;100641.69;4914403;29;20524;-78
2023/05/15 08:29:31;;;;;;;38.60;30.48;;;;;;;17.71;73.56;100642.16;4919130;29;20524;-79
2023/05/15 08:32:00;;;;;;;36.22;30.80;;;;;;;17.66;72.95;100639.31;4917648;29;20131;-79
2023/05/15 08:34:26;;;;;;;40.03;31.73;;;;;;;18.13;72.16;100635.66;4916112;29;20055;-79
2023/05/15 08:36:53;;;;;;;36.08;30.00;;;;;;;18.73;69.54;100626.59;4914753;29;20135;-79
2023/05/15 08:39:19;;;;;;;34.70;29.58;;;;;;;19.18;68.11;100630.06;4910614;29;20335;-79
2023/05/15 08:41:52;;;;;;;39.25;29.63;;;;;;;19.66;68.39;100628.75;4914209;29;20123;-79
2023/05/15 08:44:21;;;;;;;36.50;28.90;;;;;;;20.10;66.44;100623.28;4917193;29;20245;-77
2023/05/15 08:46:47;;;;;;;35.88;27.10;;;;;;;20.05;65.18;100609.84;4917109;29;20057;-78
2023/05/15 08:49:25;;;;;;;31.25;27.85;;;;;;;19.68;65.68;100616.09;4910865;29;20100;-78
2023/05/15 08:51:53;;;;;;;30.95;26.77;;;;;;;19.46;66.71;100626.19;4914803;29;20419;-80
2023/05/15 08:54:20;;;;;;;33.22;29.25;;;;;;;19.68;66.03;100608.94;4916522;29;20063;-77
2023/05/15 08:56:47;;;;;;;35.05;29.02;;;;;;;19.72;65.86;100619.94;4915529;29;20127;-79
2023/05/15 08:59:13;;;;;;;34.67;28.42;;;;;;;19.62;65.65;100604.50;4918398;29;20041;-78
2023/05/15 09:01:40;;;;;;;37.83;28.50;;;;;;;19.54;66.14;100613.53;4921494;29;20488;-79
2023/05/15 09:04:07;;;;;;;39.83;29.23;;;;;;;19.69;66.30;100615.06;4921792;29;20056;-79
2023/05/15 09:06:38;;;;;;;36.17;27.27;;;;;;;19.36;66.68;100615.28;4922815;29;20075;-80
2023/05/15 09:09:05;;;;;;;31.58;27.63;;;;;;;20.12;65.69;100615.91;4917527;28;20040;-78
2023/05/15 09:11:32;;;;;;;33.85;27.55;;;;;;;20.10;64.86;100607.34;4919979;29;20053;-78
2023/05/15 09:13:59;;;;;;;33.90;27.88;;;;;;;20.70;63.63;100612.88;4923207;29;20068;-79
2023/05/15 09:16:26;;;;;;;32.03;26.15;;;;;;;20.41;63.68;100602.97;4922510;29;20111;-77
2023/05/15 09:18:53;;;;;;;31.88;25.38;;;;;;;20.25;65.17;100614.97;4921337;29;20072;-78
2023/05/15 09:21:24;;;;;;;30.50;26.30;;;;;;;19.87;64.28;100601.81;4929807;29;20079;-78
2023/05/15 09:23:52;;;;;;;28.13;25.17;;;;;;;19.78;64.14;100596.00;4932693;29;20083;-78
2023/05/15 09:26:20;;;;;;;29.00;24.80;;;;;;;19.10;65.89;100616.22;4936892;28;20056;-79
2023/05/15 09:28:47;;;;;;;29.73;24.48;;;;;;;19.68;65.11;100610.78;4967091;28;20048;-79
2023/05/15 09:31:14;;;;;;;30.42;25.17;;;;;;;19.81;65.35;100613.34;4930057;28;20076;-77
2023/05/15 09:33:41;;;;;;;31.00;25.42;;;;;;;19.32;65.41;100604.28;4926615;29;20060;-77
2023/05/15 09:36:09;;;;;;;29.42;26.27;;;;;;;18.96;66.39;100604.03;4917845;28;20066;-79
2023/05/15 09:38:41;;;;;;;31.42;25.63;;;;;;;18.49;68.23;100613.97;4918610;28;20131;-79
2023/05/15 09:41:10;;;;;;;30.60;25.75;;;;;;;18.57;68.18;100606.63;4917312;29;20059;-81
2023/05/15 09:43:38;;;;;;;31.65;26.60;;;;;;;18.72;68.32;100617.00;4913020;29;20143;-78
2023/05/15 09:46:05;;;;;;;31.85;26.27;;;;;;;19.29;67.74;100607.34;4909868;28;20463;-78
2023/05/15 09:48:32;;;;;;;32.40;25.35;;;;;;;19.66;67.14;100608.34;4909306;28;20048;-77
2023/05/15 09:50:59;;;;;;;33.35;26.13;;;;;;;19.52;65.64;100604.16;4910728;29;20135;-79
2023/05/15 09:53:25;;;;;;;31.80;26.08;;;;;;;19.67;64.35;100596.69;4913812;29;20131;-77
2023/05/15 09:55:53;;;;;;;30.58;25.75;;;;;;;19.73;65.26;100595.84;4916284;28;20087;-78
2023/05/15 09:58:22;;;;;;;32.90;25.23;;;;;;;19.82;65.14;100588.41;4910879;29;20052;-80
2023/05/15 10:00:48;;;;;;;31.05;25.58;;;;;;;19.78;66.47;100605.81;4908414;29;20071;-78
2023/05/15 10:03:15;;;;;;;30.02;25.15;;;;;;;19.94;65.68;100605.22;4912357;29;20054;-77
2023/05/15 10:05:42;;;;;;;34.15;26.42;;;;;;;19.69;65.15;100594.63;4914872;29;20143;-78
2023/05/15 10:08:09;;;;;;;27.33;21.98;;;;;;;19.64;62.75;100591.00;4917448;29;20066;-78
2023/05/15 10:10:35;;;;;;;24.40;21.13;;;;;;;19.49;61.98;100572.69;4916690;29;20500;-78
2023/05/15 10:13:04;;;;;;;27.10;21.23;;;;;;;19.44;61.06;100569.88;4912147;28;20079;-78
2023/05/15 10:15:32;;;;;;;31.00;21.40;;;;;;;19.18;60.97;100569.03;4910011;28;20056;-79
2023/05/15 10:18:00;;;;;;;26.88;20.85;;;;;;;19.31;61.03;100570.81;4914335;29;20075;-77
2023/05/15 10:20:27;;;;;;;22.65;18.70;;;;;;;19.69;60.44;100569.94;4916388;28;20057;-78
2023/05/15 10:22:56;;;;;;;27.35;21.15;;;;;;;19.60;60.81;100579.19;4912272;28;20531;-78
2023/05/15 10:25:33;;;;;;;26.80;20.98;;;;;;;19.84;61.28;100575.72;4915466;29;20630;-78
2023/05/15 10:27:59;;;;;;;24.48;21.77;;;;;;;19.65;61.06;100566.09;4911601;29;21513;-79
2023/05/15 10:30:27;;;;;;;25.48;21.95;;;;;;;19.65;61.80;100566.09;4915803;28;20102;-78
2023/05/15 10:32:56;;;;;;;28.13;22.55;;;;;;;19.63;61.93;100571.59;4915996;29;20048;-78
2023/05/15 10:35:23;;;;;;;28.25;23.30;;;;;;;19.84;61.78;100576.53;4917281;29;20052;-81
2023/05/15 10:37:50;;;;;;;29.45;22.85;;;;;;;19.87;61.37;100559.34;4917444;29;20131;-80
2023/05/15 10:40:17;;;;;;;34.13;23.08;;;;;;;20.03;60.90;100561.44;4912198;29;20113;-79
2023/05/15 10:42:46;;;;;;;24.63;21.50;;;;;;;20.15;61.03;100564.19;4915613;29;20048;-80
2023/05/15 10:45:13;;;;;;;27.85;23.42;;;;;;;20.01;61.05;100555.53;4915992;29;20080;-79
2023/05/15 10:47:41;;;;;;;29.13;24.15;;;;;;;20.06;60.79;100552.22;4915870;29;20071;-79
2023/05/15 10:50:12;;;;;;;30.05;23.17;;;;;;;20.28;60.48;100549.94;4914054;29;20098;-79
2023/05/15 10:52:42;;;;;;;30.60;22.85;;;;;;;20.09;60.38;100549.13;4913685;29;20063;-80
2023/05/15 10:55:13;;;;;;;28.08;24.90;;;;;;;19.90;60.78;100548.28;4913290;29;20443;-78
2023/05/15 10:57:40;;;;;;;27.45;23.25;;;;;;;20.11;61.23;100547.88;4915850;29;20056;-78
2023/05/15 11:00:24;;;;;;;27.85;22.52;;;;;;;20.31;61.57;100547.66;4917230;29;20520;-78
2023/05/15 11:02:52;;;;;;;25.23;22.40;;;;;;;20.70;60.76;100538.44;4919809;29;20063;-81
2023/05/15 11:05:30;;;;;;;26.73;22.95;;;;;;;20.50;60.41;100538.66;4918000;29;20143;-80
2023/05/15 11:08:28;;;;;;;26.63;22.25;;;;;;;20.43;60.44;100532.59;4914576;29;20048;-79